createdAt,value
2022-11-26T00:01:07.916Z,5.9
2022-11-26T00:03:09.232Z,5.9
2022-11-26T00:07:14.879Z,5.8
2022-11-26T00:09:16.099Z,5.9
2022-11-26T00:13:18.484Z,5.9
2022-11-26T00:19:22.091Z,5.9
2022-11-26T00:23:27.716Z,5.9
2022-11-26T00:25:28.933Z,5.9
2022-11-26T00:29:31.350Z,5.9
2022-11-26T00:31:32.624Z,5.9
2022-11-26T00:33:33.772Z,5.9
2022-11-26T00:35:38.242Z,5.9
2022-11-26T00:37:39.420Z,5.9
2022-11-26T00:39:40.646Z,5.9
2022-11-26T00:41:43.417Z,5.9
2022-11-26T00:43:44.567Z,5.9
2022-11-26T00:45:45.867Z,5.9
2022-11-26T00:47:47.032Z,5.9
2022-11-26T00:49:51.430Z,5.8
2022-11-26T00:51:52.629Z,5.8
2022-11-26T00:54:56.064Z,5.8
2022-11-26T00:56:57.276Z,5.8
2022-11-26T00:58:58.476Z,5.8
2022-11-26T01:00:59.750Z,5.8
2022-11-26T01:03:04.144Z,5.7
2022-11-26T01:05:05.369Z,5.7
2022-11-26T01:07:06.551Z,5.7
2022-11-26T01:09:07.748Z,5.7
2022-11-26T01:11:08.952Z,5.7
2022-11-26T01:17:15.839Z,5.6
2022-11-26T01:19:17.026Z,5.6
2022-11-26T01:23:19.411Z,5.6
2022-11-26T01:25:20.607Z,5.6
2022-11-26T01:27:21.834Z,5.6
2022-11-26T01:29:23.030Z,5.6
2022-11-26T01:31:27.529Z,5.5
2022-11-26T01:33:28.679Z,5.5
2022-11-26T01:39:32.315Z,5.5
2022-11-26T01:47:40.416Z,5.4
2022-11-26T01:49:41.632Z,5.5
2022-11-26T01:52:02.088Z,5.4
2022-11-26T01:54:03.253Z,5.4
2022-11-26T01:56:04.446Z,5.4
2022-11-26T01:58:08.919Z,5.4
2022-11-26T02:00:10.113Z,5.5
2022-11-26T02:02:11.438Z,5.4
2022-11-26T02:06:13.732Z,5.4
2022-11-26T02:08:14.915Z,5.4
2022-11-26T02:10:16.152Z,5.4
2022-11-26T02:12:20.616Z,5.4
2022-11-26T02:14:21.836Z,5.4
2022-11-26T02:16:23.065Z,5.4
2022-11-26T02:18:24.209Z,5.4
2022-11-26T02:20:25.561Z,5.4
2022-11-26T02:22:26.661Z,5.4
2022-11-26T02:24:27.834Z,5.4
2022-11-26T02:26:32.276Z,5.4
2022-11-26T02:28:33.480Z,5.3
2022-11-26T02:30:34.754Z,5.3
2022-11-26T02:32:35.899Z,5.3
2022-11-26T02:34:37.697Z,5.3
2022-11-26T02:36:38.314Z,5.3
2022-11-26T02:38:39.529Z,5.2
2022-11-26T02:40:43.957Z,5.2
2022-11-26T02:42:45.160Z,5.2
2022-11-26T02:44:46.377Z,5.2
2022-11-26T02:45:48.782Z,5.2
2022-11-26T02:47:49.822Z,5.1
2022-11-26T02:49:50.990Z,5.1
2022-11-26T02:55:57.884Z,5.1
2022-11-26T02:57:59.068Z,5.1
2022-11-26T03:00:00.337Z,5.1
2022-11-26T03:02:01.500Z,5.2
2022-11-26T03:06:03.892Z,5.2
2022-11-26T03:08:08.345Z,5.2
2022-11-26T03:16:13.152Z,5.2
2022-11-26T03:18:14.304Z,5.2
2022-11-26T03:20:15.529Z,5.3
2022-11-26T03:24:21.169Z,5.2
2022-11-26T03:26:22.373Z,5.3
2022-11-26T03:28:23.566Z,5.3
2022-11-26T03:30:24.774Z,5.2
2022-11-26T03:32:25.998Z,5.2
2022-11-26T03:34:27.188Z,5.2
2022-11-26T03:36:31.670Z,5.2
2022-11-26T03:38:32.878Z,5.2
2022-11-26T03:40:34.091Z,5.2
2022-11-26T03:41:36.331Z,5.2
2022-11-26T03:43:37.536Z,5.2
2022-11-26T03:45:38.790Z,5.2
2022-11-26T03:47:39.975Z,5.2
2022-11-26T03:49:44.367Z,5.2
2022-11-26T03:51:45.562Z,5.2
2022-11-26T03:53:46.796Z,5.2
2022-11-26T03:55:47.993Z,5.2
2022-11-26T03:57:49.262Z,5.2
2022-11-26T03:59:50.377Z,5.2
2022-11-26T04:01:51.610Z,5.2
2022-11-26T04:03:56.042Z,5.2
2022-11-26T04:05:57.258Z,5.1
2022-11-26T04:07:58.464Z,5.2
2022-11-26T04:16:03.269Z,5.1
2022-11-26T04:18:07.721Z,5.1
2022-11-26T04:20:08.949Z,5.1
2022-11-26T04:22:10.136Z,5.1
2022-11-26T04:24:11.331Z,5.1
2022-11-26T04:26:12.528Z,5.1
2022-11-26T04:28:13.736Z,5.2
2022-11-26T04:30:14.960Z,5.2
2022-11-26T04:37:24.080Z,5.2
2022-11-26T04:39:25.281Z,5.2
2022-11-26T04:41:26.513Z,5.2
2022-11-26T04:43:27.729Z,5.1
2022-11-26T04:45:32.243Z,5.2
2022-11-26T04:47:33.379Z,5.1
2022-11-26T04:49:34.564Z,5.1
2022-11-26T04:51:35.765Z,5.1
2022-11-26T04:55:38.190Z,5.1
2022-11-26T04:59:43.882Z,5.1
2022-11-26T05:01:45.127Z,5.1
2022-11-26T05:03:46.270Z,5.1
2022-11-26T05:05:47.482Z,5
2022-11-26T05:07:48.812Z,5
2022-11-26T05:11:51.119Z,5
2022-11-26T05:13:55.574Z,5.1
2022-11-26T05:15:56.778Z,5
2022-11-26T05:17:57.977Z,5.1
2022-11-26T05:19:59.192Z,5.1
2022-11-26T05:26:02.821Z,5.1
2022-11-26T05:34:38.718Z,5.1
2022-11-26T05:40:44.966Z,5.2
2022-11-26T05:42:46.183Z,5.2
2022-11-26T05:44:47.423Z,5.2
2022-11-26T05:46:48.609Z,5.2
2022-11-26T05:54:56.752Z,5.2
2022-11-26T06:01:00.399Z,5.2
2022-11-26T06:03:01.705Z,5.2
2022-11-26T06:05:02.812Z,5.2
2022-11-26T06:07:04.001Z,5.2
2022-11-26T06:09:08.468Z,5.3
2022-11-26T06:11:09.651Z,5.3
2022-11-26T06:13:10.843Z,5.4
2022-11-26T06:19:14.476Z,5.3
2022-11-26T06:21:15.684Z,5.3
2022-11-26T06:23:20.184Z,5.3
2022-11-26T06:25:21.553Z,5.3
2022-11-26T06:27:22.588Z,5.3
2022-11-26T06:28:24.841Z,5.3
2022-11-26T06:30:26.149Z,5.4
2022-11-26T06:34:29.918Z,5.5
2022-11-26T06:36:34.407Z,5.5
2022-11-26T06:42:38.026Z,5.5
2022-11-26T06:48:41.659Z,5.6
2022-11-26T06:50:46.121Z,5.6
2022-11-26T06:52:47.331Z,5.5
2022-11-26T06:56:49.706Z,5.5
2022-11-26T07:04:57.821Z,5.6
2022-11-26T07:11:01.411Z,5.6
2022-11-26T07:13:02.630Z,5.6
2022-11-26T07:15:03.846Z,5.6
2022-11-26T07:17:05.035Z,5.6
2022-11-26T07:19:09.477Z,5.6
2022-11-26T07:21:10.696Z,5.6
2022-11-26T07:23:11.889Z,5.7
2022-11-26T07:24:14.116Z,5.6
2022-11-26T07:26:15.353Z,5.6
2022-11-26T07:28:16.548Z,5.6
2022-11-26T07:30:17.797Z,5.7
2022-11-26T07:34:23.446Z,5.8
2022-11-26T07:36:24.660Z,5.8
2022-11-26T07:38:25.884Z,5.8
2022-11-26T07:40:27.075Z,5.9
2022-11-26T07:42:28.301Z,5.9
2022-11-26T07:44:29.473Z,5.9
2022-11-26T07:46:34.001Z,6
2022-11-26T07:48:35.131Z,6
2022-11-26T07:50:36.366Z,6.1
2022-11-26T07:52:37.558Z,6.1
2022-11-26T07:54:39.098Z,6.1
2022-11-26T07:56:39.969Z,6.1
2022-11-26T07:58:41.204Z,6.2
2022-11-26T08:00:45.621Z,6.2
2022-11-26T08:02:46.901Z,6.3
2022-11-26T08:04:48.027Z,6.3
2022-11-26T08:06:49.238Z,6.2
2022-11-26T08:08:50.466Z,6.3
2022-11-26T08:10:51.664Z,6.3
2022-11-26T08:12:52.865Z,6.3
2022-11-26T08:14:57.348Z,6.3
2022-11-26T08:16:58.533Z,6.4
2022-11-26T08:18:59.729Z,6.4
2022-11-26T08:26:21.922Z,6.6
2022-11-26T08:28:10.045Z,6.7
2022-11-26T08:30:11.304Z,6.7
2022-11-26T08:32:12.492Z,6.8
2022-11-26T08:34:13.690Z,6.8
2022-11-26T08:36:14.898Z,6.9
2022-11-26T08:38:16.130Z,7
2022-11-26T08:40:17.311Z,7
2022-11-26T08:42:21.819Z,7.1
2022-11-26T08:44:23.034Z,7.1
2022-11-26T08:48:29.093Z,7.2
2022-11-26T08:50:26.717Z,7.3
2022-11-26T08:52:27.910Z,7.4
2022-11-26T08:54:29.135Z,7.3
2022-11-26T08:58:34.811Z,7.5
2022-11-26T09:00:36.017Z,7.7
2022-11-26T09:02:37.283Z,7.7
2022-11-26T09:04:38.713Z,7.8
2022-11-26T09:06:39.708Z,7.7
2022-11-26T09:08:40.930Z,7.7
2022-11-26T09:10:45.418Z,7.7
2022-11-26T09:12:46.614Z,7.7
2022-11-26T09:14:47.871Z,7.8
2022-11-26T09:17:16.249Z,7.8
2022-11-26T09:19:17.482Z,7.8
2022-11-26T09:21:18.727Z,7.8
2022-11-26T09:23:23.230Z,7.8
2022-11-26T09:25:24.434Z,7.9
2022-11-26T09:27:25.665Z,7.9
2022-11-26T09:29:26.865Z,7.9
2022-11-26T09:31:28.242Z,8
2022-11-26T09:33:29.343Z,8
2022-11-26T09:35:30.568Z,8.1
2022-11-26T09:37:35.043Z,8.1
2022-11-26T09:39:36.256Z,8.1
2022-11-26T09:41:37.488Z,8.1
2022-11-26T09:43:38.734Z,8.1
2022-11-26T09:45:39.992Z,8.2
2022-11-26T09:47:41.173Z,8.2
2022-11-26T09:49:42.398Z,8.2
2022-11-26T09:51:46.913Z,8.2
2022-11-26T09:53:48.122Z,8.3
2022-11-26T09:55:49.369Z,8.3
2022-11-26T09:57:50.610Z,8.3
2022-11-26T09:59:51.837Z,8.3
2022-11-26T10:05:58.769Z,8.4
2022-11-26T10:08:00.102Z,8.4
2022-11-26T10:10:01.249Z,8.4
2022-11-26T10:13:18.717Z,8.5
2022-11-26T10:15:05.960Z,8.5
2022-11-26T10:19:11.673Z,8.5
2022-11-26T10:21:12.933Z,8.6
2022-11-26T10:23:14.169Z,8.6
2022-11-26T10:27:16.615Z,8.7
2022-11-26T10:29:17.863Z,8.7
2022-11-26T10:31:19.164Z,8.7
2022-11-26T10:33:23.596Z,8.7
2022-11-26T10:35:24.944Z,8.7
2022-11-26T10:37:26.085Z,8.7
2022-11-26T10:39:27.323Z,8.8
2022-11-26T10:41:28.549Z,8.8
2022-11-26T10:43:29.788Z,8.9
2022-11-26T10:45:31.026Z,8.9
2022-11-26T10:47:35.550Z,9
2022-11-26T10:49:36.782Z,9
2022-11-26T10:51:38.048Z,9
2022-11-26T10:53:39.264Z,9
2022-11-26T10:55:40.523Z,9.1
2022-11-26T10:57:41.782Z,9.2
2022-11-26T10:59:43.031Z,9.3
2022-11-26T11:01:51.497Z,9.3
2022-11-26T11:04:08.533Z,9.3
2022-11-26T11:05:50.004Z,9.2
2022-11-26T11:06:52.257Z,9.2
2022-11-26T11:08:53.512Z,9.3
2022-11-26T11:12:56.021Z,9.6
2022-11-26T11:15:00.505Z,9.9
2022-11-26T11:19:03.014Z,9.9
2022-11-26T11:21:04.239Z,9.8
2022-11-26T11:23:05.498Z,9.8
2022-11-26T11:25:06.744Z,9.8
2022-11-26T11:27:07.987Z,9.7
2022-11-26T11:31:13.816Z,9.8
2022-11-26T11:35:16.205Z,9.9
2022-11-26T11:37:17.445Z,9.9
2022-11-26T11:39:18.701Z,9.9
2022-11-26T11:41:19.966Z,10
2022-11-26T11:43:24.442Z,9.8
2022-11-26T11:45:25.736Z,9.8
2022-11-26T11:47:26.929Z,9.8
2022-11-26T11:49:28.193Z,9.8
2022-11-26T11:51:29.453Z,9.9
2022-11-26T11:53:30.685Z,10
2022-11-26T11:55:31.914Z,10
2022-11-26T11:57:36.446Z,10
2022-11-26T11:59:37.683Z,10
2022-11-26T12:01:39.032Z,10
2022-11-26T12:10:49.404Z,9.9
2022-11-26T12:16:53.209Z,10.3
2022-11-26T12:18:54.379Z,10.5
2022-11-26T12:20:55.604Z,10.6
2022-11-26T12:29:05.371Z,10.9
2022-11-26T12:31:06.618Z,11.1
2022-11-26T12:33:07.853Z,11.3
2022-11-26T12:35:09.105Z,11.2
2022-11-26T12:41:16.103Z,10.9
2022-11-26T12:47:19.824Z,10.9
2022-11-26T12:57:29.304Z,11
2022-11-26T12:59:57.641Z,10.9
2022-11-26T13:01:58.964Z,10.9
2022-11-26T13:06:04.633Z,11
2022-11-26T13:08:05.872Z,11
2022-11-26T13:18:12.086Z,10.9
2022-11-26T13:20:16.611Z,10.9
2022-11-26T13:22:17.835Z,10.9
2022-11-26T13:24:19.290Z,10.9
2022-11-26T13:26:20.329Z,10.9
2022-11-26T13:30:22.847Z,10.8
2022-11-26T13:34:28.573Z,10.8
2022-11-26T13:36:29.812Z,10.8
2022-11-26T13:38:31.085Z,10.8
2022-11-26T13:40:32.340Z,10.8
2022-11-26T13:42:33.588Z,10.7
2022-11-26T13:44:34.829Z,10.6
2022-11-26T13:48:40.584Z,10.6
2022-11-26T13:50:41.855Z,10.5
2022-11-26T13:52:43.099Z,10.5
2022-11-26T13:53:45.326Z,10.4
2022-11-26T13:55:46.712Z,10.4
2022-11-26T13:57:47.818Z,10.5
2022-11-26T13:59:49.094Z,10.5
2022-11-26T14:01:53.631Z,10.4
2022-11-26T14:03:54.819Z,10.5
2022-11-26T14:05:56.202Z,10.5
2022-11-26T14:07:57.376Z,10.5
2022-11-26T14:16:05.610Z,10.4
2022-11-26T14:26:11.786Z,10.3
2022-11-26T14:28:13.029Z,10.3
2022-11-26T14:30:17.539Z,10.3
2022-11-26T14:32:18.792Z,10.3
2022-11-26T14:34:20.020Z,10.3
2022-11-26T14:36:21.285Z,10.4
2022-11-26T14:38:22.516Z,10.4
2022-11-26T14:40:23.781Z,10.4
2022-11-26T14:42:25.006Z,10.3
2022-11-26T14:44:29.499Z,10.3
2022-11-26T14:46:30.739Z,10.3
2022-11-26T14:48:31.995Z,10.3
2022-11-26T14:49:34.269Z,10.3
2022-11-26T14:51:35.511Z,10.3
2022-11-26T14:53:36.783Z,10.2
2022-11-26T14:55:38.033Z,10.2
2022-11-26T14:59:43.779Z,10.2
2022-11-26T15:01:45.007Z,10.2
2022-11-26T15:03:46.303Z,10.1
2022-11-26T15:05:47.483Z,10.1
2022-11-26T15:09:49.973Z,10
2022-11-26T15:11:54.475Z,10
2022-11-26T15:13:55.735Z,9.9
2022-11-26T15:15:57.018Z,9.9
2022-11-26T15:17:58.225Z,9.9
2022-11-26T15:19:59.441Z,9.8
2022-11-26T15:22:00.698Z,9.8
2022-11-26T15:24:01.920Z,9.8
2022-11-26T15:26:06.436Z,9.7
2022-11-26T15:28:07.753Z,9.7
2022-11-26T15:30:08.940Z,9.7
2022-11-26T15:32:10.151Z,9.7
2022-11-26T15:34:11.392Z,9.6
2022-11-26T15:36:17.371Z,9.6
2022-11-26T15:38:13.915Z,9.5
2022-11-26T15:40:18.435Z,9.5
2022-11-26T15:42:19.667Z,9.4
2022-11-26T15:45:23.159Z,9.4
2022-11-26T15:47:24.405Z,9.3
2022-11-26T15:49:25.646Z,9.3
2022-11-26T15:51:32.114Z,9.3
2022-11-26T15:53:31.383Z,9.2
2022-11-26T15:55:32.645Z,9.2
2022-11-26T15:57:33.898Z,9.2
2022-11-26T15:59:35.137Z,9.2
2022-11-26T16:01:36.422Z,9.1
2022-11-26T16:03:37.716Z,9.2
2022-11-26T16:05:38.935Z,9.1
2022-11-26T16:09:44.602Z,9.1
2022-11-26T16:11:45.834Z,9
2022-11-26T16:13:47.061Z,9
2022-11-26T16:15:48.313Z,9.1
2022-11-26T16:17:49.551Z,9
2022-11-26T16:19:50.801Z,9
2022-11-26T16:21:55.298Z,8.9
2022-11-26T16:23:56.619Z,9
2022-11-26T16:25:57.765Z,8.9
2022-11-26T16:27:58.981Z,8.9
2022-11-26T16:30:00.231Z,8.9
2022-11-26T16:32:01.465Z,8.8
2022-11-26T16:34:06.750Z,8.8
2022-11-26T16:36:07.192Z,8.8
2022-11-26T16:38:08.434Z,8.7
2022-11-26T16:40:09.655Z,8.7
2022-11-26T16:42:38.037Z,8.7
2022-11-26T16:46:40.584Z,8.6
2022-11-26T16:48:45.032Z,8.6
2022-11-26T16:50:46.259Z,8.6
2022-11-26T16:52:47.491Z,8.6
2022-11-26T16:54:48.868Z,8.5
2022-11-26T16:56:53.243Z,8.5
2022-11-26T16:58:51.210Z,8.5
2022-11-26T17:00:52.449Z,8.4
2022-11-26T17:02:56.993Z,8.4
2022-11-26T17:04:58.176Z,8.4
2022-11-26T17:06:59.417Z,8.3
2022-11-26T17:11:01.875Z,8.2
2022-11-26T17:15:04.334Z,8.2
2022-11-26T17:17:08.932Z,8.1
2022-11-26T17:23:12.557Z,8
2022-11-26T17:25:13.777Z,8
2022-11-26T17:27:15.039Z,8
2022-11-26T17:29:16.272Z,8
2022-11-26T17:31:20.841Z,7.9
2022-11-26T17:33:21.982Z,7.9
2022-11-26T17:35:23.231Z,7.9
2022-11-26T17:36:25.457Z,7.9
2022-11-26T17:38:26.702Z,7.9
2022-11-26T17:40:27.946Z,7.9
2022-11-26T17:42:32.294Z,7.8
2022-11-26T17:44:33.665Z,7.8
2022-11-26T17:46:48.060Z,7.8
2022-11-26T17:48:36.133Z,7.8
2022-11-26T17:50:37.354Z,7.8
2022-11-26T17:52:38.591Z,7.8
2022-11-26T18:02:48.126Z,8
2022-11-26T18:08:51.761Z,8
2022-11-26T18:10:52.958Z,8
2022-11-26T18:15:00.207Z,7.9
2022-11-26T18:17:01.498Z,8
2022-11-26T18:19:02.697Z,8
2022-11-26T18:23:05.111Z,8
2022-11-26T18:27:10.860Z,8
2022-11-26T18:29:12.083Z,7.9
2022-11-26T18:32:15.563Z,7.9
2022-11-26T18:34:16.794Z,7.9
2022-11-26T18:36:18.038Z,8
2022-11-26T18:40:23.742Z,7.8
2022-11-26T18:48:28.678Z,7.9
2022-11-26T18:50:29.879Z,7.9
2022-11-26T18:52:31.112Z,7.9
2022-11-26T18:54:35.598Z,7.9
2022-11-26T18:58:38.085Z,7.9
2022-11-26T19:00:39.321Z,7.9
2022-11-26T19:02:40.625Z,8
2022-11-26T19:04:41.812Z,8
2022-11-26T19:06:42.979Z,8
2022-11-26T19:08:47.481Z,7.9
2022-11-26T19:10:48.683Z,8
2022-11-26T19:12:49.936Z,7.9
2022-11-26T19:14:51.133Z,7.9
2022-11-26T19:16:52.437Z,7.9
2022-11-26T19:18:53.613Z,7.9
2022-11-26T19:20:54.849Z,7.9
2022-11-26T19:22:59.349Z,7.8
2022-11-26T19:25:00.566Z,7.8
2022-11-26T19:27:01.782Z,7.8
2022-11-26T19:28:05.237Z,7.8
2022-11-26T19:30:05.422Z,7.7
2022-11-26T19:32:06.455Z,7.7
2022-11-26T19:34:07.694Z,7.7
2022-11-26T19:36:12.187Z,7.6
2022-11-26T19:38:13.394Z,7.6
2022-11-26T19:40:14.613Z,7.7
2022-11-26T19:42:15.852Z,7.6
2022-11-26T19:44:17.085Z,7.6
2022-11-26T19:46:18.342Z,7.6
2022-11-26T19:50:24.042Z,7.6
2022-11-26T19:52:25.232Z,7.5
2022-11-26T19:54:26.463Z,7.5
2022-11-26T20:00:30.157Z,7.5
2022-11-26T20:02:31.429Z,7.6
2022-11-26T20:04:35.859Z,7.6
2022-11-26T20:06:37.099Z,7.6
2022-11-26T20:12:40.730Z,7.6
2022-11-26T20:14:41.976Z,7.6
2022-11-26T20:22:50.186Z,7.6
2022-11-26T20:35:27.892Z,7.6
2022-11-26T20:37:29.104Z,7.6
2022-11-26T20:39:30.334Z,7.5
2022-11-26T20:43:32.815Z,7.6
2022-11-26T20:45:37.371Z,7.6
2022-11-26T20:47:38.515Z,7.6
2022-11-26T20:49:42.903Z,7.6
2022-11-26T20:51:40.993Z,7.6
2022-11-26T20:53:42.200Z,7.6
2022-11-26T20:55:43.419Z,7.6
2022-11-26T20:57:44.654Z,7.6
2022-11-26T20:59:49.149Z,7.6
2022-11-26T21:01:50.405Z,7.6
2022-11-26T21:03:51.582Z,7.6
2022-11-26T21:05:52.806Z,7.6
2022-11-26T21:09:55.246Z,7.6
2022-11-26T21:11:56.485Z,7.6
2022-11-26T21:14:00.934Z,7.6
2022-11-26T21:16:02.158Z,7.6
2022-11-26T21:18:03.433Z,7.6
2022-11-26T21:23:08.099Z,7.6
2022-11-26T21:25:09.312Z,7.6
2022-11-26T21:27:13.780Z,7.6
2022-11-26T21:29:14.996Z,7.6
2022-11-26T21:31:16.304Z,7.5
2022-11-26T21:33:17.480Z,7.5
2022-11-26T21:35:18.685Z,7.5
2022-11-26T21:37:19.909Z,7.5
2022-11-26T21:39:21.161Z,7.5
2022-11-26T21:41:25.634Z,7.5
2022-11-26T21:43:26.846Z,7.5
2022-11-26T21:45:28.068Z,7.5
2022-11-26T21:47:29.309Z,7.4
2022-11-26T21:49:30.516Z,7.4
2022-11-26T21:51:31.744Z,7.4
2022-11-26T21:53:32.971Z,7.4
2022-11-26T21:55:37.465Z,7.3
2022-11-26T21:57:38.663Z,7.3
2022-11-26T21:59:40.256Z,7.2
2022-11-26T22:01:41.192Z,7.2
2022-11-26T22:03:42.335Z,7.2
2022-11-26T22:05:43.555Z,7.2
2022-11-26T22:07:44.839Z,7.1
2022-11-26T22:09:49.257Z,7.1
2022-11-26T22:11:50.477Z,7
2022-11-26T22:13:51.690Z,7
2022-11-26T22:14:53.928Z,7
2022-11-26T22:16:55.178Z,6.9
2022-11-26T22:18:56.422Z,6.9
2022-11-26T22:20:57.614Z,6.9
2022-11-26T22:23:02.085Z,6.9
2022-11-26T22:25:03.314Z,6.9
2022-11-26T22:27:04.549Z,6.9
2022-11-26T22:29:05.751Z,6.8
2022-11-26T22:31:07.017Z,6.8
2022-11-26T22:33:08.177Z,6.7
2022-11-26T22:35:09.409Z,6.7
2022-11-26T22:37:13.887Z,6.7
2022-11-26T22:39:15.098Z,6.7
2022-11-26T22:41:16.322Z,6.6
2022-11-26T22:49:21.202Z,6.6
2022-11-26T22:53:26.909Z,6.5
2022-11-26T22:55:28.120Z,6.5
2022-11-26T22:57:29.322Z,6.5
2022-11-26T22:59:30.541Z,6.5
2022-11-26T23:01:31.742Z,6.5
2022-11-26T23:03:33.091Z,6.4
2022-11-26T23:05:37.435Z,6.4
2022-11-26T23:07:38.724Z,6.4
2022-11-26T23:09:45.298Z,6.5
2022-11-26T23:10:42.119Z,6.4
2022-11-26T23:12:43.356Z,6.4
2022-11-26T23:14:44.541Z,6.4
2022-11-26T23:16:45.814Z,6.4
2022-11-26T23:18:50.271Z,6.3
2022-11-26T23:20:51.494Z,6.3
2022-11-26T23:22:52.705Z,6.3
2022-11-26T23:24:53.932Z,6.3
2022-11-26T23:26:55.139Z,6.3
2022-11-26T23:28:56.354Z,6.3
2022-11-26T23:30:57.629Z,6.3
2022-11-26T23:33:02.047Z,6.2
2022-11-26T23:35:03.254Z,6.2
2022-11-26T23:37:04.510Z,6.2
2022-11-26T23:41:06.873Z,6.2
2022-11-26T23:47:13.787Z,6.2
2022-11-26T23:51:16.194Z,6.1
2022-11-26T23:53:17.387Z,6.1
2022-11-26T23:55:18.607Z,6.2
2022-11-26T23:57:19.846Z,6.2
2022-11-26T23:59:21.061Z,6.2
